Burstall, Canada
Current Conditions -  °F | °C
As of 6:00 AM on Friday 19 Dec 2014 (Local Time) from CYXH Reporting Station
Clear Clear  
Wind Chill: 13°   Ceiling: Unl
Heat Index: 21°   Visibility: 9mi
Dew Point: 19°   Wind: 7mph
Humidity: 93%   Direction: 210°SSW
Pressure: 29.83"   Gusts: NA
Location:  50.65°N, 109.92°W
Report Text: CYXH 191200Z AUTO 21006KT 9SM CLR M06/M07 A2983 RMK SLP138
Loading
Personal Weather Stations






























Interactive Weather Map New forecast layout! Learn more

10-Day Weather Forecast

Advertisements
Track Severe Weather on mobile